Chester, California
Current Conditions -  °F | °C
As of 9:52 AM on Thursday 29 Jan 2015 (Local Time) from KCIC Reporting Station
Scattered Clouds Scattered Clouds  
Wind Chill: 50°   Ceiling: Unl
Heat Index: 50°   Visibility: 40mi
Dew Point: 45°   Wind: 0mph
Humidity: 82%   Direction: NA
Pressure: 30.16"   Gusts: NA
Location:  40.31°N, 121.23°W
Report Text: KCIC 291752Z 00000KT 40SM SCT250 10/07 A3016
Loading
Personal Weather Stations






























Interactive Weather Map New forecast layout! Learn more

10-Day Weather Forecast

Advertisements
Track Severe Weather on mobile